Latest Weather Observations for Port Augusta

IDS60801

Issued at 10:01 am CDT Friday 20 January 2017 (issued every 30 minutes, with the page automatically refreshed every 10 minutes)

About weather observations | Map of weather stations | Latest weather observations for SA | Other Formats
Station Details ID: 018201 Name: PORT AUGUSTA AERO Lat: -32.51 Lon: 137.72 Height: 13.97 m
Data from the previous 72 hours. | See also: Recent months at Port Augusta
Date/Time
CDT
Temp
°C
App
Temp
°C
Dew
Point
°C
Rel
Hum
%
Delta-T
°C
Wind Press
QNH
hPa
Press
MSL
hPa
Rain since
9am
mm
Dir  Spd
km/h
Gust
km/h
Spd
kts
Gust
kts
20/10:00am 20.6 15.6 17.0 80 2.2 SSW 39 50 21 27 1005.5 1005.5 0.0
20/09:30am 20.2 14.5 16.2 78 2.4 SSW 41 54 22 29 1004.8 1004.8 0.0
20/09:00am 20.1 15.4 16.9 82 1.9 SSW 37 48 20 26 1004.6 1004.6 18.0
20/08:30am 20.5 16.9 17.7 84 1.7 SSW 33 43 18 23 1004.0 1004.0 18.0
20/08:00am 21.1 18.0 18.5 85 1.6 SSW 32 39 17 21 1003.3 1003.3 18.0
20/07:30am 21.0 19.2 18.8 87 1.4 S 26 35 14 19 1002.9 1002.9 18.0
20/07:00am 21.1 19.7 18.9 87 1.4 S 24 33 13 18 1002.5 1002.5 18.0
20/06:30am 21.6 21.3 19.5 88 1.3 S 20 26 11 14 1001.7 1001.7 18.0
20/06:24am 21.8 22.1 20.3 91 1.0 SSW 19 26 10 14 1001.6 1001.6 18.0
20/06:04am 21.8 22.6 20.6 93 0.8 SW 17 28 9 15 1001.0 1001.0 18.0
20/06:00am 22.1 24.1 20.7 92 0.9 SSW 11 22 6 12 1000.8 1000.8 17.8
20/05:30am 22.2 24.3 21.0 93 0.8 ESE 11 13 6 7 1000.1 1000.1 17.8
20/05:00am 22.3 25.1 20.9 92 0.9 NNE 7 13 4 7 1000.1 1000.1 17.6
20/04:30am 22.2 22.9 20.5 90 1.1 SE 17 24 9 13 999.7 999.7 17.0
20/04:00am 22.4 24.1 20.9 91 1.0 ESE 13 20 7 11 999.7 999.7 17.0
20/03:30am 22.5 23.9 21.0 91 1.0 SE 15 20 8 11 999.4 999.4 17.0
20/03:00am 25.6 30.1 24.0 91 1.1 NW 7 9 4 5 999.5 999.5 17.0
20/02:30am 25.5 30.9 23.9 91 1.1 NW 2 6 1 3 999.4 999.4 17.0
20/02:00am 25.4 29.8 23.8 91 1.1 NW 7 11 4 6 999.6 999.6 17.0
20/01:30am 25.3 30.0 24.3 94 0.7 N 7 7 4 4 999.7 999.7 16.8
20/01:00am 25.2 28.7 24.2 94 0.7 WNW 13 17 7 9 1000.0 1000.0 16.8
20/12:30am 25.1 27.8 24.2 95 0.6 WNW 17 22 9 12 999.7 999.7 16.6
20/12:00am 24.7 28.3 23.7 94 0.7 W 11 15 6 8 999.4 999.4 16.6
 
Date/Time
CDT
Temp
°C
App
Temp
°C
Dew
Point
°C
Rel
Hum
%
Delta-T
°C
Wind Press
QNH
hPa
Press
MSL
hPa
Rain since
9am
mm
Dir  Spd
km/h
Gust
km/h
Spd
kts
Gust
kts
19/11:30pm 24.3 27.3 23.4 95 0.6 SW 13 19 7 10 999.5 999.5 16.6
19/11:00pm 24.1 28.3 23.2 95 0.6 SE 6 7 3 4 999.9 999.9 16.6
19/10:30pm 23.9 27.6 23.2 96 0.5 NE 9 11 5 6 1000.2 1000.2 16.6
19/10:00pm 23.5 24.9 22.8 96 0.5 E 20 26 11 14 999.6 999.6 16.6
19/09:30pm 23.5 26.7 23.0 97 0.3 E 11 22 6 12 999.9 999.9 15.8
19/09:12pm 22.9 19.9 22.2 96 0.5 W 41 69 22 37 1001.4 1001.4 14.6
19/09:09pm 22.9 17.9 22.2 96 0.5 W 52 76 28 41 1002.1 1002.1 13.6
19/09:00pm 24.4 19.1 23.2 93 0.8 W 56 82 30 44 1002.4 1002.4 3.0
19/08:59pm 24.5 19.6 23.1 92 0.9 W 54 82 29 44 1002.2 1002.2 1.6
19/08:58pm 24.8 20.2 23.0 90 1.2 WSW 52 82 28 44 1002.1 1002.1 1.2
19/08:57pm 25.6 21.3 23.5 88 1.4 WSW 52 74 28 40 1002.3 1002.3 0.6
19/08:48pm 28.1 24.0 22.6 72 3.7 SW 48 74 26 40 1000.4 1000.4 0.2
19/08:40pm 29.6 31.0 22.8 67 4.6 WSW 20 56 11 30 999.6 999.6 0.2
19/08:39pm 30.0 32.2 23.2 67 4.7 WSW 17 39 9 21 999.5 999.5 0.2
19/08:30pm 30.4 33.6 23.1 65 5.0 WSW 11 13 6 7 998.7 998.7 0.2
19/08:00pm 30.9 35.5 22.5 61 5.7 NE 2 7 1 4 998.4 998.4 0.2
19/07:30pm 31.0 32.0 21.8 58 6.2 NNE 19 28 10 15 998.1 998.0 0.2
19/07:00pm 31.1 30.7 22.4 60 5.9 N 28 43 15 23 998.6 998.6 0.2
19/06:30pm 31.3 33.2 23.4 63 5.5 W 19 24 10 13 998.1 998.0 0.2
19/06:00pm 31.8 32.4 22.8 59 6.2 W 24 32 13 17 998.1 998.0 0.0
19/05:47pm 34.3 34.8 22.0 48 8.4 WNW 22 43 12 23 998.1 998.0 0.0
19/05:30pm 37.5 37.5 19.0 34 12.3 NW 17 24 9 13 997.7 997.6 0.0
19/05:00pm 38.1 36.9 18.5 31 12.9 NNW 22 33 12 18 998.0 997.9 0.0
19/04:30pm 38.9 37.1 18.7 30 13.4 NNW 26 33 14 18 998.6 998.6 0.0
19/04:00pm 38.4 36.6 18.8 32 13.0 N 26 39 14 21 999.1 999.1 0.0
19/03:30pm 38.9 37.1 18.7 30 13.4 N 26 39 14 21 1000.0 1000.0 0.0
19/03:00pm 39.6 37.6 18.2 28 14.2 NNW 26 35 14 19 1000.8 1000.8 0.0
19/02:30pm 38.7 36.0 17.5 29 13.9 NNW 28 43 15 23 1001.7 1001.7 0.0
19/02:00pm 39.2 36.4 17.3 27 14.3 NNW 28 48 15 26 1002.7 1002.7 0.0
19/01:53pm 39.7 36.9 17.2 27 14.7 NNW 28 48 15 26 1002.8 1002.8 0.0
19/01:30pm 39.1 35.9 17.2 27 14.3 NNW 30 41 16 22 1003.3 1003.3 0.0
19/01:00pm 37.3 34.1 16.3 29 13.4 N 28 48 15 26 1004.0 1004.0 0.0
19/12:57pm 37.0 33.1 15.5 28 13.6 N 30 48 16 26 1004.1 1004.1 0.0
19/12:30pm 37.1 33.1 16.1 29 13.4 N 32 43 17 23 1004.7 1004.7 0.0
19/12:00pm 36.8 33.8 16.9 31 12.8 N 28 41 15 22 1005.1 1005.1 0.0
19/11:30am 35.9 32.6 15.1 29 13.0 NNE 26 41 14 22 1005.8 1005.8 0.0
19/11:00am 34.4 32.6 13.3 28 12.8 N 15 20 8 11 1006.3 1006.3 0.0
19/10:30am 33.2 32.0 12.8 29 12.2 NNE 11 15 6 8 1006.7 1006.7 0.0
19/10:00am 32.0 31.2 11.7 28 11.9 NNE 7 13 4 7 1006.8 1006.8 0.0
19/09:30am 30.7 30.2 10.6 29 11.5 WNW 4 9 2 5 1007.0 1007.0 0.0
19/09:00am 30.2 28.7 10.7 30 11.2 ENE 9 11 5 6 1007.2 1007.2 0.0
19/08:30am 29.5 28.0 12.0 34 10.2 E 11 15 6 8 1007.3 1007.3 0.0
19/08:00am 27.3 26.4 11.3 37 9.1 SE 7 11 4 6 1007.1 1007.1 0.0
19/07:30am 25.5 24.9 12.4 44 7.6 SE 7 11 4 6 1006.8 1006.8 0.0
19/07:00am 24.9 23.9 12.2 45 7.3 ENE 9 13 5 7 1006.7 1006.7 0.0
19/06:30am 25.8 22.9 9.6 36 8.9 E 15 17 8 9 1006.6 1006.6 0.0
19/06:00am 25.2 23.1 9.9 38 8.5 SE 11 15 6 8 1006.5 1006.5 0.0
19/05:30am 25.6 22.6 9.4 36 8.9 ESE 15 19 8 10 1006.5 1006.5 0.0
19/05:00am 25.8 22.5 9.6 36 8.9 E 17 22 9 12 1006.7 1006.7 0.0
19/04:30am 26.5 22.2 9.4 34 9.4 E 22 30 12 16 1006.5 1006.5 0.0
19/04:00am 26.5 23.3 9.8 35 9.2 E 17 22 9 12 1006.7 1006.7 0.0
19/03:30am 26.1 23.4 10.3 37 8.8 ESE 15 20 8 11 1007.0 1007.0 0.0
19/03:00am 26.2 23.8 11.5 40 8.4 SE 15 20 8 11 1007.2 1007.2 0.0
19/02:30am 26.2 23.7 12.3 42 8.0 SE 17 22 9 12 1007.6 1007.6 0.0
19/02:00am 26.3 24.0 14.1 47 7.3 SE 19 26 10 14 1008.0 1007.9 0.0
19/01:30am 26.1 24.6 15.2 51 6.6 SE 17 22 9 12 1008.4 1008.3 0.0
19/01:00am 25.7 25.9 15.7 54 6.1 SE 9 13 5 7 1008.6 1008.5 0.0
19/12:30am 24.5 26.6 16.2 60 5.1 CALM 0 6 0 3 1008.9 1008.8 0.0
19/12:00am 25.0 25.4 16.2 58 5.4 SSW 9 13 5 7 1009.1 1009.0 0.0
 
Date/Time
CDT
Temp
°C
App
Temp
°C
Dew
Point
°C
Rel
Hum
%
Delta-T
°C
Wind Press
QNH
hPa
Press
MSL
hPa
Rain since
9am
mm
Dir  Spd
km/h
Gust
km/h
Spd
kts
Gust
kts
18/11:30pm 25.2 24.9 16.4 58 5.4 SW 13 17 7 9 1009.2 1009.1 0.0
18/11:00pm 25.9 25.5 16.2 55 6.0 SSW 13 17 7 9 1009.4 1009.3 0.0
18/10:30pm 25.8 23.8 15.5 53 6.3 SSW 20 26 11 14 1009.5 1009.4 0.0
18/10:00pm 26.2 24.4 15.6 52 6.5 SSW 19 26 10 14 1009.3 1009.2 0.0
18/09:30pm 27.2 27.8 16.8 53 6.5 SE 9 13 5 7 1009.3 1009.2 0.0
18/09:00pm 27.4 27.7 17.0 53 6.5 SE 11 17 6 9 1008.9 1008.8 0.0
18/08:30pm 29.1 28.3 15.2 42 8.5 S 13 19 7 10 1008.7 1008.6 0.0
18/08:00pm 30.4 28.0 14.5 38 9.7 S 20 26 11 14 1008.3 1008.2 0.0
18/07:30pm 31.2 28.2 14.8 37 10.1 S 24 32 13 17 1008.2 1008.1 0.0
18/07:00pm 31.1 26.9 14.7 37 10.0 SSE 30 41 16 22 1007.9 1007.8 0.0
18/06:30pm 31.3 26.6 14.4 35 10.3 SSE 32 43 17 23 1007.9 1007.8 0.0
18/06:00pm 31.6 26.5 14.7 36 10.4 SSE 35 43 19 23 1007.8 1007.7 0.0
18/05:30pm 32.4 27.8 15.0 35 10.8 SSE 33 46 18 25 1007.5 1007.5 0.0
18/05:00pm 32.8 27.5 15.3 34 10.9 SSE 37 46 20 25 1007.8 1007.7 0.0
18/04:30pm 33.1 28.7 15.1 33 11.2 SSE 32 41 17 22 1008.2 1008.1 0.0
18/04:00pm 31.6 28.1 15.5 37 10.0 SSE 28 41 15 22 1008.5 1008.4 0.0
18/03:30pm 31.8 27.1 14.9 36 10.4 SSE 33 43 18 23 1008.4 1008.3 0.0
18/03:00pm 30.7 27.0 17.0 43 8.7 SSE 32 39 17 21 1008.6 1008.5 0.0
18/02:30pm 31.3 26.4 14.4 35 10.3 SE 33 43 18 23 1008.8 1008.7 0.0
18/02:00pm 32.6 28.0 14.7 34 11.0 SSE 32 43 17 23 1009.2 1009.1 0.0
18/01:30pm 33.3 29.2 13.9 31 11.8 SE 28 37 15 20 1009.6 1009.5 0.0
18/01:00pm 32.7 29.4 12.9 30 11.9 SE 22 33 12 18 1010.3 1010.2 0.0
18/12:30pm 32.9 29.3 13.0 30 12.0 SSE 24 35 13 19 1010.5 1010.4 0.0
18/12:00pm 31.4 27.3 12.7 32 11.1 SSE 26 35 14 19 1010.7 1010.6 0.0
18/11:30am 30.2 25.4 11.7 32 10.8 SSE 28 37 15 20 1010.7 1010.6 0.0
18/11:00am 29.7 24.4 13.0 35 9.9 SSE 33 41 18 22 1011.2 1011.1 0.0
18/10:30am 28.5 22.6 12.4 37 9.4 SSE 35 43 19 23 1011.3 1011.2 0.0
18/10:00am 27.4 21.2 12.6 40 8.6 SSE 37 48 20 26 1011.2 1011.1 0.0
18/09:30am 27.0 21.2 12.6 41 8.4 SSE 35 44 19 24 1011.2 1011.1 0.0
18/09:00am 27.1 22.1 12.3 39 8.6 SSE 30 37 16 20 1011.0 1010.9 0.0
18/08:30am 27.0 22.4 11.1 37 9.0 SSE 26 35 14 19 1010.8 1010.7 0.0
18/08:00am 25.3 21.0 12.2 44 7.5 SSE 26 33 14 18 1010.5 1010.4 0.0
18/07:30am 24.2 20.1 13.7 52 6.2 SSE 28 37 15 20 1010.2 1010.1 0.0
18/07:00am 23.1 20.4 13.6 55 5.5 SE 20 28 11 15 1010.4 1010.3 0.0
18/06:30am 23.0 20.7 14.6 59 5.0 SSE 20 26 11 14 1009.8 1009.7 0.0
18/06:00am 22.6 20.5 15.2 63 4.4 SSE 20 28 11 15 1009.4 1009.3 0.0
18/05:30am 21.4 20.5 15.9 71 3.3 SSE 15 19 8 10 1009.2 1009.1 0.0
18/05:00am 21.7 20.9 16.2 71 3.3 S 15 20 8 11 1008.8 1008.7 0.0
18/04:30am 22.0 20.2 16.9 73 3.1 SSE 22 32 12 17 1008.2 1008.1 0.0
18/04:00am 21.7 18.9 16.4 72 3.2 SSE 26 33 14 18 1008.1 1008.0 0.0
18/03:30am 21.5 18.2 16.0 71 3.3 SE 28 35 15 19 1008.2 1008.1 0.0
18/03:00am 22.5 19.9 15.8 66 4.0 SE 24 30 13 16 1008.4 1008.3 0.0
18/02:30am 23.3 21.0 14.6 58 5.2 SE 20 24 11 13 1008.5 1008.4 0.0
18/02:00am 24.0 21.8 13.2 50 6.3 SE 17 26 9 14 1008.5 1008.4 0.0
18/01:30am 25.7 23.5 12.2 43 7.8 ESE 15 22 8 12 1007.8 1007.7 0.0
18/01:00am 24.2 22.2 14.0 53 6.0 SSE 17 26 9 14 1008.0 1007.9 0.0
18/12:30am 24.2 20.1 14.9 56 5.6 SE 30 41 16 22 1008.0 1007.9 0.0
18/12:00am 24.8 21.7 14.6 53 6.1 SSE 24 41 13 22 1008.3 1008.2 0.0
 
Date/Time
CDT
Temp
°C
App
Temp
°C
Dew
Point
°C
Rel
Hum
%
Delta-T
°C
Wind Press
QNH
hPa
Press
MSL
hPa
Rain since
9am
mm
Dir  Spd
km/h
Gust
km/h
Spd
kts
Gust
kts
17/11:30pm 25.3 21.1 14.7 51 6.3 SSE 30 44 16 24 1008.7 1008.6 0.0
17/11:13pm 26.5 21.3 13.3 44 7.8 S 33 52 18 28 1009.0 1008.9 0.0
17/11:00pm 26.2 20.5 15.3 51 6.6 S 39 52 21 28 1008.7 1008.6 0.0
17/10:34pm 28.9 20.1 9.6 30 10.8 SSE 46 65 25 35 1008.0 1007.9 0.0
17/10:30pm 29.6 20.4 8.1 26 11.8 SSE 46 61 25 33 1007.9 1007.8 0.0
17/10:11pm 29.1 20.1 8.7 28 11.2 SSE 46 65 25 35 1008.1 1008.0 0.0
17/10:00pm 29.3 18.4 8.9 28 11.3 S 56 70 30 38 1007.2 1007.2 0.0
17/09:33pm 30.0 20.0 7.8 25 12.1 S 50 69 27 37 1006.6 1006.6 0.0
17/09:30pm 30.2 20.1 7.4 24 12.4 S 50 67 27 36 1006.5 1006.5 0.0
17/09:05pm 31.0 27.0 6.8 22 13.0 SW 17 52 9 28 1005.8 1005.8 0.0
17/09:00pm 33.5 31.9 8.2 21 14.2 W 6 11 3 6 1005.4 1005.4 0.0
17/08:30pm 35.8 32.6 5.1 15 16.6 NW 11 13 6 7 1005.0 1005.0 0.0
17/08:00pm 38.5 34.5 2.8 11 18.8 NW 13 17 7 9 1004.6 1004.6 0.0
17/07:30pm 40.3 36.1 1.4 9 20.3 NW 13 19 7 10 1004.5 1004.5 0.0
17/07:00pm 41.2 34.8 -1.4 7 21.4 NW 22 28 12 15 1004.3 1004.3 0.0
17/06:30pm 42.0 36.1 -0.9 7 21.9 WNW 20 30 11 16 1004.2 1004.2 0.0
17/06:00pm 42.3 36.4 -0.6 7 22.0 WNW 20 30 11 16 1004.2 1004.2 0.0
17/05:30pm 42.7 37.0 -0.4 7 22.2 NNW 19 26 10 14 1004.2 1004.2 0.0
17/05:00pm 42.0 35.8 -2.9 6 22.2 NW 20 32 11 17 1004.4 1004.4 0.0
17/04:30pm 42.0 35.1 -2.9 6 22.2 NNW 24 37 13 20 1004.7 1004.7 0.0
17/04:00pm 42.3 35.0 -2.7 6 22.3 NNW 26 37 14 20 1005.0 1005.0 0.0
17/03:30pm 41.9 33.2 -3.0 6 22.2 NW 33 52 18 28 1005.4 1005.4 0.0
17/03:23pm 42.2 34.4 -0.7 7 21.9 NNW 30 52 16 28 1005.4 1005.4 0.0
17/03:00pm 41.8 35.9 -1.0 7 21.8 NNW 20 30 11 16 1005.6 1005.6 0.0
17/02:30pm 41.9 35.2 -0.9 7 21.8 NW 24 33 13 18 1006.1 1006.1 0.0
17/02:00pm 40.4 34.0 -2.0 7 21.0 NNW 22 41 12 22 1006.6 1006.6 0.0
17/01:30pm 40.6 33.4 -1.9 7 21.2 NNW 26 37 14 20 1006.9 1006.9 0.0
17/01:00pm 39.9 33.7 -0.5 8 20.4 NNW 22 35 12 19 1007.3 1007.3 0.0
17/12:30pm 40.2 34.1 -2.1 7 20.9 NNW 20 30 11 16 1007.8 1007.7 0.0
17/12:00pm 39.9 34.0 -0.5 8 20.4 NW 20 30 11 16 1008.0 1007.9 0.0
17/11:30am 38.8 34.4 0.3 9 19.6 NNW 13 22 7 12 1008.1 1008.0 0.0
17/11:00am 36.3 32.8 7.4 17 16.2 NW 15 20 8 11 1008.4 1008.3 0.0
17/10:30am 35.3 32.6 5.7 16 16.1 NNW 9 13 5 7 1008.5 1008.4 0.0

Other Formats:

Comma delimited format used in spreadsheet applications
http://www.bom.gov.au/fwo/IDS60801/IDS60801.95666.axf

JavaScript Object Notation format (JSON) in row-major order
http://www.bom.gov.au/fwo/IDS60801/IDS60801.95666.json